Livermore, Kentucky
Current Conditions -  °F | °C
As of 2:56 PM on Saturday 25 Oct 2014 (Local Time) from KOWB Reporting Station
Clear Clear  
Wind Chill: 78°   Ceiling: Unl
Heat Index: 79°   Visibility: 10mi
Dew Point: 60°   Wind: 9mph
Humidity: 54%   Direction: 290°WNW
Pressure: 29.98"   Gusts: NA
Location:  37.49°N, 87.13°W
Report Text: KOWB 251956Z 29008KT 10SM CLR 26/16 A2998 RMK AO2 T02550155 SLP151
Loading
Personal Weather Stations






























Interactive Weather Map
Tropical Storm Tracking
New forecast layout! Learn more

10-Day Weather Forecast

Advertisements
Track Severe Weather on mobile